createdAt,value
2022-11-09T00:02:48.098Z,13.37
2022-11-09T00:07:55.508Z,13.83
2022-11-09T00:13:01.168Z,11.73
2022-11-09T00:18:07.677Z,12.93
2022-11-09T00:23:14.978Z,11.67
2022-11-09T00:28:19.988Z,12.83
2022-11-09T00:33:25.394Z,14.30
2022-11-09T00:38:34.226Z,13.03
2022-11-09T00:43:39.332Z,12.70
2022-11-09T00:48:44.860Z,14.07
2022-11-09T00:53:54.763Z,15.70
2022-11-09T00:59:00.301Z,15.97
2022-11-09T01:04:05.435Z,15.83
2022-11-09T01:09:14.045Z,16.07
2022-11-09T01:14:18.914Z,15.73
2022-11-09T01:19:23.733Z,16.87
2022-11-09T01:24:37.696Z,16.30
2022-11-09T01:29:42.672Z,15.77
2022-11-09T01:34:47.546Z,16.87
2022-11-09T01:39:55.045Z,16.87
2022-11-09T01:45:24.900Z,16.60
2022-11-09T01:50:35.011Z,18.53
2022-11-09T01:55:42.705Z,17.93
2022-11-09T02:00:51.615Z,16.90
2022-11-09T02:06:00.416Z,17.63
2022-11-09T02:11:12.123Z,16.63
2022-11-09T02:16:18.254Z,17.10
2022-11-09T02:21:27.477Z,17.27
2022-11-09T02:26:37.336Z,17.50
2022-11-09T02:31:47.875Z,17.27
2022-11-09T02:36:55.656Z,17.17
2022-11-09T02:42:09.092Z,17.57
2022-11-09T02:47:15.179Z,16.07
2022-11-09T02:52:23.602Z,16.90
2022-11-09T02:57:33.253Z,16.13
2022-11-09T03:02:40.635Z,17.23
2022-11-09T03:07:49.491Z,16.60
2022-11-09T03:12:54.508Z,17.60
2022-11-09T03:17:59.686Z,17.00
2022-11-09T03:23:07.296Z,17.30
2022-11-09T03:28:15.784Z,15.93
2022-11-09T03:33:21.912Z,16.63
2022-11-09T03:38:29.708Z,16.57
2022-11-09T03:43:38.627Z,15.40
2022-11-09T03:48:43.536Z,15.70
2022-11-09T03:53:51.105Z,16.67
2022-11-09T03:58:55.951Z,17.07
2022-11-09T04:04:02.303Z,15.33
2022-11-09T04:09:10.899Z,16.27
2022-11-09T04:14:16.034Z,16.17
2022-11-09T04:19:20.885Z,16.73
2022-11-09T04:24:31.230Z,15.80
2022-11-09T04:29:36.079Z,16.70
2022-11-09T04:34:41.562Z,17.00
2022-11-09T04:39:49.599Z,17.87
2022-11-09T04:45:00.831Z,17.50
2022-11-09T04:50:05.746Z,17.27
2022-11-09T04:55:13.883Z,16.77
2022-11-09T05:00:30.196Z,16.97
2022-11-09T05:05:48.292Z,15.53
2022-11-09T05:11:02.144Z,15.80
2022-11-09T05:16:08.082Z,15.77
2022-11-09T05:21:13.443Z,14.67
2022-11-09T05:26:25.127Z,14.10
2022-11-09T05:31:32.255Z,15.30
2022-11-09T05:36:37.494Z,15.80
2022-11-09T05:41:52.636Z,16.53
2022-11-09T05:46:58.225Z,16.60
2022-11-09T05:52:13.891Z,14.30
2022-11-09T05:57:32.034Z,16.03
2022-11-09T06:02:39.358Z,15.77
2022-11-09T06:07:44.405Z,14.73
2022-11-09T06:12:56.004Z,13.93
2022-11-09T06:18:02.249Z,14.77
2022-11-09T06:23:07.308Z,15.90
2022-11-09T06:28:15.234Z,15.07
2022-11-09T06:33:22.333Z,15.20
2022-11-09T06:38:35.373Z,15.00
2022-11-09T06:43:50.270Z,16.43
2022-11-09T06:48:58.058Z,15.23
2022-11-09T06:54:03.717Z,15.17
2022-11-09T06:59:19.116Z,15.00
2022-11-09T07:04:25.421Z,13.93
2022-11-09T07:09:34.167Z,15.77
2022-11-09T07:14:42.521Z,14.67
2022-11-09T07:19:47.611Z,15.43
2022-11-09T07:24:52.677Z,15.33
2022-11-09T07:30:04.831Z,15.00
2022-11-09T07:35:12.846Z,15.33
2022-11-09T07:40:22.498Z,14.30
2022-11-09T07:45:30.098Z,15.60
2022-11-09T07:50:39.148Z,14.30
2022-11-09T07:55:50.295Z,14.83
2022-11-09T08:01:22.534Z,14.73
2022-11-09T08:06:40.389Z,15.13
2022-11-09T08:11:48.856Z,14.20
2022-11-09T08:16:58.197Z,13.57
2022-11-09T08:22:03.145Z,13.87
2022-11-09T08:27:08.060Z,12.63
2022-11-09T08:32:20.911Z,13.77
2022-11-09T08:37:25.650Z,14.10
2022-11-09T08:42:34.908Z,12.23
2022-11-09T08:47:44.573Z,12.10
2022-11-09T08:52:53.722Z,13.03
2022-11-09T09:03:23.993Z,11.93
2022-11-09T09:08:31.608Z,12.27
2022-11-09T09:13:43.380Z,11.40
2022-11-09T09:18:52.364Z,10.33
2022-11-09T09:23:59.216Z,11.17
2022-11-09T09:29:04.515Z,11.13
2022-11-09T09:34:13.250Z,10.07
2022-11-09T09:39:18.213Z,11.20
2022-11-09T09:44:37.097Z,12.10
2022-11-09T09:49:50.388Z,11.27
2022-11-09T09:55:04.535Z,11.73
2022-11-09T10:00:12.057Z,10.50
2022-11-09T10:05:21.769Z,11.23
2022-11-09T10:10:40.267Z,11.33
2022-11-09T10:15:55.176Z,11.23
2022-11-09T10:21:17.688Z,13.83
2022-11-09T10:26:30.309Z,13.37
2022-11-09T10:31:43.990Z,12.50
2022-11-09T10:37:01.453Z,12.43
2022-11-09T10:42:06.235Z,14.93
2022-11-09T10:47:35.323Z,13.23
2022-11-09T10:53:18.477Z,13.50
2022-11-09T10:58:49.640Z,15.30
2022-11-09T11:04:23.827Z,20.57
2022-11-09T11:09:50.401Z,15.27
2022-11-09T11:15:25.759Z,14.83
2022-11-09T11:20:49.871Z,14.10
2022-11-09T11:26:33.251Z,12.43
2022-11-09T11:31:58.249Z,13.53
2022-11-09T11:37:42.756Z,13.27
2022-11-09T11:43:30.991Z,11.30
2022-11-09T11:49:17.512Z,10.07
2022-11-09T11:54:54.354Z,10.07
2022-11-09T12:00:24.076Z,11.67
2022-11-09T12:06:09.529Z,11.37
2022-11-09T12:11:48.073Z,10.37
2022-11-09T12:17:21.894Z,10.77
2022-11-09T12:22:54.284Z,12.10
2022-11-09T12:28:34.736Z,11.83
2022-11-09T12:34:06.816Z,11.43
2022-11-09T12:39:38.635Z,12.10
2022-11-09T12:45:06.689Z,10.63
2022-11-09T12:50:34.390Z,10.87
2022-11-09T12:56:03.013Z,11.07
2022-11-09T13:01:56.885Z,11.33
2022-11-09T13:07:33.785Z,12.83
2022-11-09T13:13:22.839Z,13.00
2022-11-09T13:18:53.129Z,13.40
2022-11-09T13:24:54.323Z,12.70
2022-11-09T13:30:43.717Z,13.00
2022-11-09T13:36:26.077Z,13.10
2022-11-09T13:41:49.731Z,12.67
2022-11-09T13:47:27.049Z,13.47
2022-11-09T13:52:55.088Z,13.23
2022-11-09T13:58:26.392Z,12.67
2022-11-09T14:03:58.922Z,13.00
2022-11-09T14:09:23.391Z,13.87
2022-11-09T14:15:01.500Z,14.27
2022-11-09T14:20:36.038Z,14.10
2022-11-09T14:25:59.768Z,13.90
2022-11-09T14:31:28.264Z,14.47
2022-11-09T14:36:54.536Z,15.33
2022-11-09T14:42:22.194Z,14.53
2022-11-09T14:47:49.088Z,16.37
2022-11-09T14:53:22.599Z,15.33
2022-11-09T14:58:47.620Z,16.30
2022-11-09T15:04:14.599Z,15.60
2022-11-09T15:09:50.656Z,16.00
2022-11-09T15:15:24.455Z,16.57
2022-11-09T15:20:47.889Z,16.80
2022-11-09T15:26:31.698Z,16.60
2022-11-09T15:32:05.227Z,17.50
2022-11-09T15:37:31.482Z,16.93
2022-11-09T15:42:57.964Z,17.77
2022-11-09T15:48:24.508Z,18.00
2022-11-09T15:53:48.440Z,17.70
2022-11-09T15:59:21.896Z,17.73
2022-11-09T16:04:46.685Z,15.67
2022-11-09T16:10:15.849Z,17.13
2022-11-09T16:15:42.810Z,17.60
2022-11-09T16:21:11.154Z,17.57
2022-11-09T16:26:34.969Z,17.17
2022-11-09T16:32:01.035Z,16.10
2022-11-09T16:37:25.350Z,14.70
2022-11-09T16:42:49.399Z,16.20
2022-11-09T16:48:19.094Z,17.30
2022-11-09T16:53:42.807Z,15.70
2022-11-09T16:59:06.685Z,14.83
2022-11-09T17:04:33.703Z,14.47
2022-11-09T17:09:57.205Z,14.43
2022-11-09T17:15:21.203Z,14.43
2022-11-09T17:20:49.090Z,12.87
2022-11-09T17:26:13.134Z,13.40
2022-11-09T17:31:38.328Z,13.37
2022-11-09T17:37:08.235Z,13.47
2022-11-09T17:42:31.819Z,12.70
2022-11-09T17:47:56.596Z,12.63
2022-11-09T17:53:22.619Z,13.53
2022-11-09T17:58:48.204Z,11.80
2022-11-09T18:04:13.164Z,12.10
2022-11-09T18:09:42.187Z,12.00
2022-11-09T18:15:06.983Z,12.87
2022-11-09T18:20:32.062Z,13.40
2022-11-09T18:26:02.379Z,12.87
2022-11-09T18:31:26.430Z,13.00
2022-11-09T18:36:49.942Z,12.97
2022-11-09T18:42:16.116Z,13.23
2022-11-09T18:47:39.663Z,14.33
2022-11-09T18:53:03.296Z,13.30
2022-11-09T18:58:30.353Z,13.90
2022-11-09T19:03:59.040Z,14.20
2022-11-09T19:09:35.387Z,13.57
2022-11-09T19:15:01.813Z,14.30
2022-11-09T19:20:25.614Z,12.77
2022-11-09T19:25:50.324Z,13.77
2022-11-09T19:31:19.748Z,14.30
2022-11-09T19:36:46.115Z,13.60
2022-11-09T19:42:10.148Z,13.33
2022-11-09T19:47:36.353Z,15.30
2022-11-09T19:53:00.314Z,14.93
2022-11-09T19:58:24.860Z,13.87
2022-11-09T20:03:57.142Z,14.57
2022-11-09T20:09:21.160Z,14.87
2022-11-09T20:14:45.856Z,15.20
2022-11-09T20:20:15.722Z,14.90
2022-11-09T20:25:39.725Z,14.87
2022-11-09T20:31:03.700Z,14.13
2022-11-09T20:36:30.153Z,14.63
2022-11-09T20:41:53.675Z,13.77
2022-11-09T20:47:41.997Z,14.63
2022-11-09T20:53:07.885Z,15.03
2022-11-09T20:58:31.842Z,13.37
2022-11-09T21:03:56.497Z,14.27
2022-11-09T21:09:23.046Z,13.53
2022-11-09T21:14:46.794Z,13.90
2022-11-09T21:20:12.471Z,14.60
2022-11-09T21:25:52.204Z,12.93
2022-11-09T21:31:16.548Z,13.70
2022-11-09T21:36:40.321Z,12.93
2022-11-09T21:42:08.360Z,13.67
2022-11-09T21:47:32.075Z,13.17
2022-11-09T21:52:55.569Z,13.87
2022-11-09T21:58:21.851Z,13.63
2022-11-09T22:03:47.424Z,14.57
2022-11-09T22:09:15.633Z,12.77
2022-11-09T22:14:56.545Z,12.20
2022-11-09T22:20:32.901Z,11.77
2022-11-09T22:25:56.572Z,11.77
2022-11-09T22:31:22.883Z,11.63
2022-11-09T22:36:48.017Z,11.50
2022-11-09T22:42:12.846Z,11.03
2022-11-09T22:47:38.873Z,8.63
2022-11-09T22:53:04.247Z,6.17
2022-11-09T22:58:28.645Z,7.10
2022-11-09T23:03:55.005Z,6.20
2022-11-09T23:09:18.199Z,6.10
2022-11-09T23:14:56.586Z,6.30
2022-11-09T23:20:23.277Z,8.17
2022-11-09T23:26:01.792Z,9.00
2022-11-09T23:31:27.212Z,9.90
2022-11-09T23:36:53.464Z,9.67
2022-11-09T23:42:16.908Z,9.33
2022-11-09T23:47:40.846Z,8.37
2022-11-09T23:53:06.939Z,9.40
2022-11-09T23:58:30.846Z,7.83
